Arcadia, Wisconsin
Current Conditions -  °F | °C
As of 9:14 AM on Monday 22 Dec 2014 (Local Time) from KONA Reporting Station
Haze Haze  
Wind Chill: 28°   Ceiling: 1400
Heat Index: 36°   Visibility: 5mi
Dew Point: 32°   Wind: 10mph
Humidity: 87%   Direction: 130°SE
Pressure: 29.74"   Gusts: NA
Location:  44.25°N, 91.5°W
Report Text: KONA 221514Z AUTO 13009KT 5SM BR OVC014 02/00 A2974 RMK AO2
Loading
Personal Weather Stations






























Interactive Weather Map New forecast layout! Learn more

10-Day Weather Forecast

Advertisements
Track Severe Weather on mobile